Time,TemperatureF,DewpointF,PressureIn,WindDirection,WindDirectionDegrees,WindSpeedMPH,WindSpeedGustMPH,Humidity,HourlyPrecipIn,Conditions,Clouds,dailyrainin,SolarRadiationWatts/m^2,SoftwareType,DateUTC
2013-04-20 00:00:00,35.0,28.0,-100.00,WNW,292,16.0,-999.0,77,-99.99,,,-99.99,0.000000,,2013-04-20 04:00:00,
2013-04-20 00:43:00,35.0,28.0,-100.00,WNW,292,16.0,-999.0,77,-99.99,,,-99.99,0.000000,,2013-04-20 04:43:00,
2013-04-20 00:53:00,35.0,28.0,-100.00,WNW,292,16.0,-999.0,77,-99.99,,,-99.99,0.000000,,2013-04-20 04:53:00,
2013-04-20 01:00:00,32.0,29.0,-100.00,WNW,292,15.0,-999.0,87,-99.99,,,-99.99,0.000000,,2013-04-20 05:00:00,
2013-04-20 01:43:00,32.0,29.0,-100.00,WNW,292,15.0,-999.0,87,-99.99,,,-99.99,0.000000,,2013-04-20 05:43:00,
2013-04-20 01:52:00,32.0,29.0,-100.00,WNW,292,15.0,-999.0,87,-99.99,,,-99.99,0.000000,,2013-04-20 05:52:00,
2013-04-20 02:00:00,32.0,27.0,-100.00,WNW,292,13.0,-999.0,80,-99.99,,,-99.99,0.000000,,2013-04-20 06:00:00,
2013-04-20 02:42:00,32.0,27.0,-100.00,WNW,292,13.0,-999.0,80,-99.99,,,-99.99,0.000000,,2013-04-20 06:42:00,
2013-04-20 02:52:00,32.0,27.0,-100.00,WNW,292,13.0,-999.0,80,-99.99,,,-99.99,0.000000,,2013-04-20 06:52:00,
2013-04-20 03:00:00,32.0,24.0,-100.00,WNW,292,15.0,-999.0,73,-99.99,,,-99.99,0.000000,,2013-04-20 07:00:00,
2013-04-20 03:42:00,32.0,24.0,-100.00,WNW,292,15.0,-999.0,73,-99.99,,,-99.99,0.000000,,2013-04-20 07:42:00,
2013-04-20 03:52:00,32.0,24.0,-100.00,WNW,292,15.0,-999.0,73,-99.99,,,-99.99,0.000000,,2013-04-20 07:52:00,
2013-04-20 05:00:00,30.0,19.0,-100.00,NW,315,11.0,-999.0,62,-99.99,,,-99.99,0.000000,,2013-04-20 09:00:00,
2013-04-20 05:43:00,30.0,19.0,-100.00,NW,315,11.0,-999.0,62,-99.99,,,-99.99,0.000000,,2013-04-20 09:43:00,
2013-04-20 05:53:00,30.0,19.0,-100.00,NW,315,11.0,-999.0,62,-99.99,,,-99.99,0.000000,,2013-04-20 09:53:00,
2013-04-20 06:00:00,30.0,18.0,-100.00,WNW,292,11.0,-999.0,61,-99.99,,,-99.99,0.000000,,2013-04-20 10:00:00,
2013-04-20 06:42:00,30.0,18.0,-100.00,WNW,292,11.0,-999.0,61,-99.99,,,-99.99,0.000000,,2013-04-20 10:42:00,
2013-04-20 06:53:00,30.0,18.0,-100.00,WNW,292,11.0,-999.0,61,-99.99,,,-99.99,0.000000,,2013-04-20 10:53:00,
2013-04-20 07:00:00,29.0,21.0,-100.00,NW,315,9.0,-999.0,71,-99.99,,,-99.99,1.160000,,2013-04-20 11:00:00,
2013-04-20 07:42:00,29.0,21.0,-100.00,NW,315,9.0,-999.0,71,-99.99,,,-99.99,1.160000,,2013-04-20 11:42:00,
2013-04-20 07:53:00,29.0,21.0,-100.00,NW,315,9.0,-999.0,71,-99.99,,,-99.99,1.160000,,2013-04-20 11:53:00,
2013-04-20 08:00:00,29.0,20.0,-100.00,NW,315,7.0,-999.0,70,-99.99,,,-99.99,16.240000,,2013-04-20 12:00:00,
2013-04-20 08:42:00,29.0,20.0,-100.00,NW,315,7.0,-999.0,70,-99.99,,,-99.99,16.240000,,2013-04-20 12:42:00,
2013-04-20 08:52:00,29.0,20.0,-100.00,NW,315,7.0,-999.0,70,-99.99,,,-99.99,16.240000,,2013-04-20 12:52:00,
2013-04-20 09:00:00,29.0,20.0,-100.00,NW,315,5.0,-999.0,67,-99.99,,,-99.99,84.680000,,2013-04-20 13:00:00,
2013-04-20 09:42:00,29.0,20.0,-100.00,NW,315,5.0,-999.0,67,-99.99,,,-99.99,84.680000,,2013-04-20 13:42:00,
2013-04-20 09:52:00,29.0,20.0,-100.00,NW,315,5.0,-999.0,67,-99.99,,,-99.99,84.680000,,2013-04-20 13:52:00,
2013-04-20 10:00:00,31.0,19.0,-100.00,WNW,292,12.0,-999.0,61,-99.99,,,-99.99,221.559998,,2013-04-20 14:00:00,
2013-04-20 10:42:00,31.0,19.0,-100.00,WNW,292,12.0,-999.0,61,-99.99,,,-99.99,221.559998,,2013-04-20 14:42:00,
2013-04-20 10:52:00,31.0,19.0,-100.00,WNW,292,12.0,-999.0,61,-99.99,,,-99.99,221.559998,,2013-04-20 14:52:00,
2013-04-20 11:00:00,31.0,21.0,-100.00,WNW,292,14.0,-999.0,63,-99.99,,,-99.99,303.920013,,2013-04-20 15:00:00,
2013-04-20 11:43:00,31.0,21.0,-100.00,WNW,292,14.0,-999.0,63,-99.99,,,-99.99,303.920013,,2013-04-20 15:43:00,
2013-04-20 11:53:00,31.0,21.0,-100.00,WNW,292,14.0,-999.0,63,-99.99,,,-99.99,303.920013,,2013-04-20 15:53:00,
2013-04-20 12:00:00,32.0,22.0,-100.00,WNW,292,14.0,-999.0,64,-99.99,,,-99.99,419.920013,,2013-04-20 16:00:00,
2013-04-20 12:42:00,32.0,22.0,-100.00,WNW,292,14.0,-999.0,64,-99.99,,,-99.99,419.920013,,2013-04-20 16:42:00,
2013-04-20 12:53:00,32.0,22.0,-100.00,WNW,292,14.0,-999.0,64,-99.99,,,-99.99,419.920013,,2013-04-20 16:53:00,
2013-04-20 13:00:00,34.0,23.0,-100.00,WNW,292,14.0,-999.0,64,-99.99,,,-99.99,552.159973,,2013-04-20 17:00:00,
2013-04-20 13:42:00,34.0,23.0,-100.00,WNW,292,14.0,-999.0,64,-99.99,,,-99.99,552.159973,,2013-04-20 17:42:00,
2013-04-20 13:52:00,34.0,23.0,-100.00,WNW,292,14.0,-999.0,64,-99.99,,,-99.99,552.159973,,2013-04-20 17:52:00,
2013-04-20 14:00:00,34.0,22.0,-100.00,WNW,292,14.0,-999.0,61,-99.99,,,-99.99,476.760010,,2013-04-20 18:00:00,
2013-04-20 14:42:00,34.0,22.0,-100.00,WNW,292,14.0,-999.0,61,-99.99,,,-99.99,476.760010,,2013-04-20 18:42:00,
2013-04-20 14:53:00,34.0,22.0,-100.00,WNW,292,14.0,-999.0,61,-99.99,,,-99.99,476.760010,,2013-04-20 18:53:00,
2013-04-20 15:00:00,34.0,22.0,-100.00,WNW,292,14.0,-999.0,60,-99.99,,,-99.99,509.239990,,2013-04-20 19:00:00,
2013-04-20 15:42:00,34.0,22.0,-100.00,WNW,292,14.0,-999.0,60,-99.99,,,-99.99,509.239990,,2013-04-20 19:42:00,
2013-04-20 15:52:00,34.0,22.0,-100.00,WNW,292,14.0,-999.0,60,-99.99,,,-99.99,509.239990,,2013-04-20 19:52:00,
2013-04-20 16:00:00,35.0,22.0,-100.00,WNW,292,13.0,-999.0,59,-99.99,,,-99.99,544.039978,,2013-04-20 20:00:00,
2013-04-20 16:42:00,35.0,22.0,-100.00,WNW,292,13.0,-999.0,59,-99.99,,,-99.99,544.039978,,2013-04-20 20:42:00,
2013-04-20 16:52:00,35.0,22.0,-100.00,WNW,292,13.0,-999.0,59,-99.99,,,-99.99,544.039978,,2013-04-20 20:52:00,
2013-04-20 17:00:00,36.0,22.0,-100.00,WNW,292,13.0,-999.0,57,-99.99,,,-99.99,511.559998,,2013-04-20 21:00:00,
2013-04-20 17:43:00,36.0,22.0,-100.00,WNW,292,13.0,-999.0,57,-99.99,,,-99.99,511.559998,,2013-04-20 21:43:00,
2013-04-20 17:53:00,36.0,22.0,-100.00,WNW,292,13.0,-999.0,57,-99.99,,,-99.99,511.559998,,2013-04-20 21:53:00,
2013-04-20 18:00:00,36.0,20.0,-100.00,WNW,292,11.0,-999.0,52,-99.99,,,-99.99,470.959991,,2013-04-20 22:00:00,
2013-04-20 18:42:00,36.0,20.0,-100.00,WNW,292,11.0,-999.0,52,-99.99,,,-99.99,470.959991,,2013-04-20 22:42:00,
2013-04-20 18:53:00,36.0,20.0,-100.00,WNW,292,11.0,-999.0,52,-99.99,,,-99.99,470.959991,,2013-04-20 22:53:00,
2013-04-20 19:00:00,36.0,18.0,-100.00,WNW,292,10.0,-999.0,46,-99.99,,,-99.99,307.399994,,2013-04-20 23:00:00,
2013-04-20 19:42:00,36.0,18.0,-100.00,WNW,292,10.0,-999.0,46,-99.99,,,-99.99,307.399994,,2013-04-20 23:42:00,
2013-04-20 19:53:00,36.0,18.0,-100.00,WNW,292,10.0,-999.0,46,-99.99,,,-99.99,307.399994,,2013-04-20 23:53:00,
2013-04-20 21:00:00,34.0,20.0,-100.00,WNW,292,3.0,-999.0,55,-99.99,,,-99.99,10.440000,,2013-04-21 01:00:00,
2013-04-20 21:42:00,34.0,20.0,-100.00,WNW,292,3.0,-999.0,55,-99.99,,,-99.99,10.440000,,2013-04-21 01:42:00,
2013-04-20 21:52:00,34.0,20.0,-100.00,WNW,292,3.0,-999.0,55,-99.99,,,-99.99,10.440000,,2013-04-21 01:52:00,
2013-04-20 22:00:00,31.0,21.0,-100.00,NW,315,0.0,-999.0,65,-99.99,,,-99.99,0.000000,,2013-04-21 02:00:00,
2013-04-20 22:42:00,31.0,21.0,-100.00,NW,315,0.0,-999.0,65,-99.99,,,-99.99,0.000000,,2013-04-21 02:42:00,
2013-04-20 22:52:00,31.0,21.0,-100.00,NW,315,0.0,-999.0,65,-99.99,,,-99.99,0.000000,,2013-04-21 02:52:00,
2013-04-20 23:00:00,29.0,24.0,-100.00,WNW,292,0.0,-999.0,79,-99.99,,,-99.99,0.000000,,2013-04-21 03:00:00,
2013-04-20 23:42:00,29.0,24.0,-100.00,WNW,292,0.0,-999.0,79,-99.99,,,-99.99,0.000000,,2013-04-21 03:42:00,
2013-04-20 23:53:00,29.0,24.0,-100.00,WNW,292,0.0,-999.0,79,-99.99,,,-99.99,0.000000,,2013-04-21 03:53:00,